Terminal Aerodrome Forecast
Issued by NWS

Home | Current Version | Previous Version | Graphics & Text | Print | Product List | Glossary On
Versions: 1 2 3 4 5 6 7 8 9 10 11 12 13 14 15 16 17 18 19
000
FTUS43 KICT 222037 AAB
TAFSLN
TAF AMD
KSLN 222037Z 2221/2318 19015G21KT P6SM OVC008
      TEMPO 2221/2224 SCT008 OVC015
     FM230300 18011KT 2SM BR SCT003 OVC006=

USA.gov is the U.S. government's official web portal to all federal, state and local government web resources and services.